Aviation Digital Data Service (ADDS)

Output produced by METARs form (1346 UTC 21 April 2021)
found at http://www.aviationweather.gov/metar/data/
 
METAR text: KAMW 211253Z AUTO 35012KT 10SM SCT033 BKN043 BKN050 00/M09 A3019 RMK AO2 SNB1154E05 SLP228 P0000 T00001094
Conditions at: KAMW (AMES , IA, US) observed 1253 UTC 21 April 2021
Temperature: 0.0°C (32°F)
Dewpoint: -9.4°C (15°F) [RH = 49%]
Pressure (altimeter): 30.19 inches Hg (1022.4 mb)
[Sea-level pressure: 1022.8 mb]
Winds: from the N (350 degrees) at 14 MPH (12 knots; 6.2 m/s)
Visibility: 10 or more miles (16+ km)
Ceiling: 4300 feet AGL
Clouds: scattered clouds at 3300 feet AGL
broken clouds at 4300 feet AGL
broken clouds at 5000 feet AGL
Weather: automated observation with no human augmentation;
there may or may not be significant weather present at this time